sensor_id;sensor_type;location;lat;lon;timestamp;pressure;altitude;pressure_sealevel;temperature
68952;BMP180;56000;51.146;17.112;2023-07-28T00:00:55;99317.40;;;16.80
68952;BMP180;56000;51.146;17.112;2023-07-28T00:03:36;99321.20;;;16.80
68952;BMP180;56000;51.146;17.112;2023-07-28T00:06:10;99316.80;;;16.80
68952;BMP180;56000;51.146;17.112;2023-07-28T00:08:43;99312.60;;;16.80
68952;BMP180;56000;51.146;17.112;2023-07-28T00:11:17;99308.60;;;16.82
68952;BMP180;56000;51.146;17.112;2023-07-28T00:13:50;99309.80;;;16.84
68952;BMP180;56000;51.146;17.112;2023-07-28T00:16:23;99308.00;;;16.80
68952;BMP180;56000;51.146;17.112;2023-07-28T00:18:56;99309.60;;;16.80
68952;BMP180;56000;51.146;17.112;2023-07-28T00:21:29;99298.60;;;16.80
68952;BMP180;56000;51.146;17.112;2023-07-28T00:24:02;99296.40;;;16.80
68952;BMP180;56000;51.146;17.112;2023-07-28T00:26:35;99301.20;;;16.80
68952;BMP180;56000;51.146;17.112;2023-07-28T00:29:08;99294.80;;;16.80
68952;BMP180;56000;51.146;17.112;2023-07-28T00:31:42;99292.80;;;16.80
68952;BMP180;56000;51.146;17.112;2023-07-28T00:34:15;99287.60;;;16.80
68952;BMP180;56000;51.146;17.112;2023-07-28T00:36:48;99284.20;;;16.80
68952;BMP180;56000;51.146;17.112;2023-07-28T00:39:21;99282.00;;;16.80
68952;BMP180;56000;51.146;17.112;2023-07-28T00:41:54;99270.80;;;16.80
68952;BMP180;56000;51.146;17.112;2023-07-28T00:44:27;99267.00;;;16.80
68952;BMP180;56000;51.146;17.112;2023-07-28T00:47:01;99261.00;;;16.80
68952;BMP180;56000;51.146;17.112;2023-07-28T00:49:35;99257.40;;;16.80
68952;BMP180;56000;51.146;17.112;2023-07-28T00:52:10;99259.60;;;16.70
68952;BMP180;56000;51.146;17.112;2023-07-28T00:54:43;99251.20;;;16.70
68952;BMP180;56000;51.146;17.112;2023-07-28T00:57:17;99255.60;;;16.70
68952;BMP180;56000;51.146;17.112;2023-07-28T00:59:50;99257.00;;;16.70
68952;BMP180;56000;51.146;17.112;2023-07-28T01:02:23;99257.20;;;16.70
68952;BMP180;56000;51.146;17.112;2023-07-28T01:04:57;99253.20;;;16.70
68952;BMP180;56000;51.146;17.112;2023-07-28T01:07:39;99249.40;;;16.70
68952;BMP180;56000;51.146;17.112;2023-07-28T01:10:22;99247.40;;;16.70
68952;BMP180;56000;51.146;17.112;2023-07-28T01:12:55;99245.60;;;16.70
68952;BMP180;56000;51.146;17.112;2023-07-28T01:15:28;99243.80;;;16.70
68952;BMP180;56000;51.146;17.112;2023-07-28T01:18:01;99239.80;;;16.70
68952;BMP180;56000;51.146;17.112;2023-07-28T01:20:35;99235.40;;;16.70
68952;BMP180;56000;51.146;17.112;2023-07-28T01:23:24;99231.60;;;16.70
68952;BMP180;56000;51.146;17.112;2023-07-28T01:26:10;99231.20;;;16.70
68952;BMP180;56000;51.146;17.112;2023-07-28T01:28:44;99236.40;;;16.80
68952;BMP180;56000;51.146;17.112;2023-07-28T01:31:18;99235.20;;;16.80
68952;BMP180;56000;51.146;17.112;2023-07-28T01:33:51;99229.60;;;16.80
68952;BMP180;56000;51.146;17.112;2023-07-28T01:36:24;99227.00;;;16.80
68952;BMP180;56000;51.146;17.112;2023-07-28T01:38:57;99228.00;;;16.90
68952;BMP180;56000;51.146;17.112;2023-07-28T01:41:30;99224.00;;;16.90
68952;BMP180;56000;51.146;17.112;2023-07-28T01:44:03;99223.20;;;16.90
68952;BMP180;56000;51.146;17.112;2023-07-28T01:46:36;99222.40;;;16.90
68952;BMP180;56000;51.146;17.112;2023-07-28T01:49:10;99225.40;;;16.90
68952;BMP180;56000;51.146;17.112;2023-07-28T01:51:44;99214.60;;;16.92
68952;BMP180;56000;51.146;17.112;2023-07-28T01:54:17;99211.20;;;17.00
68952;BMP180;56000;51.146;17.112;2023-07-28T01:56:50;99203.20;;;17.00
68952;BMP180;56000;51.146;17.112;2023-07-28T01:59:23;99201.80;;;17.00
68952;BMP180;56000;51.146;17.112;2023-07-28T02:01:56;99199.00;;;16.96
68952;BMP180;56000;51.146;17.112;2023-07-28T02:04:30;99195.80;;;16.92
68952;BMP180;56000;51.146;17.112;2023-07-28T02:07:03;99199.20;;;16.90
68952;BMP180;56000;51.146;17.112;2023-07-28T02:09:36;99204.60;;;16.92
68952;BMP180;56000;51.146;17.112;2023-07-28T02:12:10;99204.60;;;17.00
68952;BMP180;56000;51.146;17.112;2023-07-28T02:14:43;99208.60;;;17.00
68952;BMP180;56000;51.146;17.112;2023-07-28T02:17:16;99211.60;;;17.00
68952;BMP180;56000;51.146;17.112;2023-07-28T02:19:49;99214.80;;;17.02
68952;BMP180;56000;51.146;17.112;2023-07-28T02:22:23;99217.80;;;17.04
68952;BMP180;56000;51.146;17.112;2023-07-28T02:24:56;99211.00;;;17.10
68952;BMP180;56000;51.146;17.112;2023-07-28T02:27:32;99211.00;;;17.10
68952;BMP180;56000;51.146;17.112;2023-07-28T02:30:07;99213.40;;;17.10
68952;BMP180;56000;51.146;17.112;2023-07-28T02:32:42;99211.80;;;17.08
68952;BMP180;56000;51.146;17.112;2023-07-28T02:35:15;99204.40;;;17.02
68952;BMP180;56000;51.146;17.112;2023-07-28T02:37:52;99204.80;;;17.00
68952;BMP180;56000;51.146;17.112;2023-07-28T02:40:25;99209.80;;;16.96
68952;BMP180;56000;51.146;17.112;2023-07-28T02:42:58;99206.80;;;16.90
68952;BMP180;56000;51.146;17.112;2023-07-28T02:45:31;99211.00;;;16.90
68952;BMP180;56000;51.146;17.112;2023-07-28T02:48:05;99205.80;;;16.80
68952;BMP180;56000;51.146;17.112;2023-07-28T02:50:38;99207.00;;;16.80
68952;BMP180;56000;51.146;17.112;2023-07-28T02:53:12;99202.40;;;16.80
68952;BMP180;56000;51.146;17.112;2023-07-28T02:55:46;99207.00;;;16.80
68952;BMP180;56000;51.146;17.112;2023-07-28T02:58:19;99206.20;;;16.80
68952;BMP180;56000;51.146;17.112;2023-07-28T03:00:54;99203.00;;;16.80
68952;BMP180;56000;51.146;17.112;2023-07-28T03:03:33;99197.00;;;16.78
68952;BMP180;56000;51.146;17.112;2023-07-28T03:06:07;99194.20;;;16.72
68952;BMP180;56000;51.146;17.112;2023-07-28T03:08:41;99201.00;;;16.70
68952;BMP180;56000;51.146;17.112;2023-07-28T03:11:46;99199.20;;;16.70
68952;BMP180;56000;51.146;17.112;2023-07-28T03:14:20;99198.60;;;16.70
68952;BMP180;56000;51.146;17.112;2023-07-28T03:16:53;99198.00;;;16.70
68952;BMP180;56000;51.146;17.112;2023-07-28T03:19:26;99195.60;;;16.70
68952;BMP180;56000;51.146;17.112;2023-07-28T03:21:59;99202.40;;;16.76
68952;BMP180;56000;51.146;17.112;2023-07-28T03:24:32;99199.00;;;16.70
68952;BMP180;56000;51.146;17.112;2023-07-28T03:27:06;99207.60;;;16.70
68952;BMP180;56000;51.146;17.112;2023-07-28T03:29:40;99213.80;;;16.72
68952;BMP180;56000;51.146;17.112;2023-07-28T03:32:13;99217.40;;;16.80
68952;BMP180;56000;51.146;17.112;2023-07-28T03:34:46;99215.20;;;16.80
68952;BMP180;56000;51.146;17.112;2023-07-28T03:37:21;99215.60;;;16.80
68952;BMP180;56000;51.146;17.112;2023-07-28T03:39:54;99208.40;;;16.80
68952;BMP180;56000;51.146;17.112;2023-07-28T03:42:30;99209.00;;;16.80
68952;BMP180;56000;51.146;17.112;2023-07-28T03:45:05;99205.00;;;16.80
68952;BMP180;56000;51.146;17.112;2023-07-28T03:47:38;99199.60;;;16.80
68952;BMP180;56000;51.146;17.112;2023-07-28T03:50:12;99196.60;;;16.80
68952;BMP180;56000;51.146;17.112;2023-07-28T03:52:45;99188.60;;;16.80
68952;BMP180;56000;51.146;17.112;2023-07-28T03:55:18;99188.20;;;16.80
68952;BMP180;56000;51.146;17.112;2023-07-28T03:57:51;99189.00;;;16.80
68952;BMP180;56000;51.146;17.112;2023-07-28T04:00:24;99192.80;;;16.82
68952;BMP180;56000;51.146;17.112;2023-07-28T04:02:58;99187.40;;;16.88
68952;BMP180;56000;51.146;17.112;2023-07-28T04:05:31;99183.40;;;16.90
68952;BMP180;56000;51.146;17.112;2023-07-28T04:08:04;99176.00;;;16.90
68952;BMP180;56000;51.146;17.112;2023-07-28T04:10:38;99177.40;;;16.90
68952;BMP180;56000;51.146;17.112;2023-07-28T04:13:11;99169.60;;;17.00
68952;BMP180;56000;51.146;17.112;2023-07-28T04:15:44;99163.80;;;17.00
68952;BMP180;56000;51.146;17.112;2023-07-28T04:18:17;99160.80;;;17.00
68952;BMP180;56000;51.146;17.112;2023-07-28T04:20:51;99164.40;;;17.10
68952;BMP180;56000;51.146;17.112;2023-07-28T04:23:24;99157.60;;;17.10
68952;BMP180;56000;51.146;17.112;2023-07-28T04:25:57;99161.60;;;17.20
68952;BMP180;56000;51.146;17.112;2023-07-28T04:28:33;99159.40;;;17.20
68952;BMP180;56000;51.146;17.112;2023-07-28T04:31:07;99156.00;;;17.20
68952;BMP180;56000;51.146;17.112;2023-07-28T04:33:58;99156.60;;;17.24
68952;BMP180;56000;51.146;17.112;2023-07-28T04:36:43;99160.00;;;17.30
68952;BMP180;56000;51.146;17.112;2023-07-28T04:39:18;99153.60;;;17.30
68952;BMP180;56000;51.146;17.112;2023-07-28T04:41:51;99152.40;;;17.38
68952;BMP180;56000;51.146;17.112;2023-07-28T04:44:25;99153.80;;;17.40
68952;BMP180;56000;51.146;17.112;2023-07-28T04:47:00;99154.40;;;17.40
68952;BMP180;56000;51.146;17.112;2023-07-28T04:49:33;99149.80;;;17.46
68952;BMP180;56000;51.146;17.112;2023-07-28T04:52:12;99144.40;;;17.50
68952;BMP180;56000;51.146;17.112;2023-07-28T04:54:56;99147.60;;;17.50
68952;BMP180;56000;51.146;17.112;2023-07-28T04:57:29;99148.60;;;17.50
68952;BMP180;56000;51.146;17.112;2023-07-28T05:00:02;99152.20;;;17.60
68952;BMP180;56000;51.146;17.112;2023-07-28T05:02:35;99151.60;;;17.60
68952;BMP180;56000;51.146;17.112;2023-07-28T05:05:10;99155.40;;;17.62
68952;BMP180;56000;51.146;17.112;2023-07-28T05:07:43;99152.80;;;17.66
68952;BMP180;56000;51.146;17.112;2023-07-28T05:10:18;99156.60;;;17.68
68952;BMP180;56000;51.146;17.112;2023-07-28T05:12:51;99156.60;;;17.70
68952;BMP180;56000;51.146;17.112;2023-07-28T05:15:24;99165.60;;;17.70
68952;BMP180;56000;51.146;17.112;2023-07-28T05:17:57;99163.40;;;17.70
68952;BMP180;56000;51.146;17.112;2023-07-28T05:20:49;99169.40;;;17.70
68952;BMP180;56000;51.146;17.112;2023-07-28T05:23:22;99168.80;;;17.70
68952;BMP180;56000;51.146;17.112;2023-07-28T05:25:55;99174.40;;;17.70
68952;BMP180;56000;51.146;17.112;2023-07-28T05:28:28;99175.80;;;17.66
68952;BMP180;56000;51.146;17.112;2023-07-28T05:31:07;99174.80;;;17.50
68952;BMP180;56000;51.146;17.112;2023-07-28T05:33:43;99169.60;;;17.32
68952;BMP180;56000;51.146;17.112;2023-07-28T05:36:16;99166.20;;;17.28
68952;BMP180;56000;51.146;17.112;2023-07-28T05:38:49;99170.60;;;17.20
68952;BMP180;56000;51.146;17.112;2023-07-28T05:41:22;99170.60;;;17.20
68952;BMP180;56000;51.146;17.112;2023-07-28T05:43:56;99167.80;;;17.28
68952;BMP180;56000;51.146;17.112;2023-07-28T05:46:29;99152.60;;;17.30
68952;BMP180;56000;51.146;17.112;2023-07-28T05:49:02;99158.60;;;17.40
68952;BMP180;56000;51.146;17.112;2023-07-28T05:51:36;99157.60;;;17.40
68952;BMP180;56000;51.146;17.112;2023-07-28T05:54:09;99157.40;;;17.40
68952;BMP180;56000;51.146;17.112;2023-07-28T05:56:44;99163.80;;;17.44
68952;BMP180;56000;51.146;17.112;2023-07-28T05:59:18;99164.60;;;17.50
68952;BMP180;56000;51.146;17.112;2023-07-28T06:01:51;99172.60;;;17.58
68952;BMP180;56000;51.146;17.112;2023-07-28T06:04:39;99175.20;;;17.60
68952;BMP180;56000;51.146;17.112;2023-07-28T06:07:12;99172.60;;;17.70
68952;BMP180;56000;51.146;17.112;2023-07-28T06:09:46;99171.80;;;17.70
68952;BMP180;56000;51.146;17.112;2023-07-28T06:12:20;99167.40;;;17.76
68952;BMP180;56000;51.146;17.112;2023-07-28T06:14:53;99171.20;;;17.80
68952;BMP180;56000;51.146;17.112;2023-07-28T06:17:26;99166.40;;;17.80
68952;BMP180;56000;51.146;17.112;2023-07-28T06:20:00;99166.00;;;17.90
68952;BMP180;56000;51.146;17.112;2023-07-28T06:22:33;99161.00;;;17.90
68952;BMP180;56000;51.146;17.112;2023-07-28T06:25:08;99162.40;;;18.00
68952;BMP180;56000;51.146;17.112;2023-07-28T06:27:41;99170.60;;;18.00
68952;BMP180;56000;51.146;17.112;2023-07-28T06:30:14;99171.00;;;18.10
68952;BMP180;56000;51.146;17.112;2023-07-28T06:32:48;99169.60;;;18.22
68952;BMP180;56000;51.146;17.112;2023-07-28T06:35:21;99168.40;;;18.30
68952;BMP180;56000;51.146;17.112;2023-07-28T06:37:54;99171.00;;;18.36
68952;BMP180;56000;51.146;17.112;2023-07-28T06:40:27;99177.40;;;18.40
68952;BMP180;56000;51.146;17.112;2023-07-28T06:43:01;99179.60;;;18.30
68952;BMP180;56000;51.146;17.112;2023-07-28T06:45:34;99180.60;;;18.30
68952;BMP180;56000;51.146;17.112;2023-07-28T06:48:07;99179.80;;;18.30
68952;BMP180;56000;51.146;17.112;2023-07-28T06:50:40;99189.20;;;18.30
68952;BMP180;56000;51.146;17.112;2023-07-28T06:53:14;99189.40;;;18.40
68952;BMP180;56000;51.146;17.112;2023-07-28T06:55:48;99184.20;;;18.50
68952;BMP180;56000;51.146;17.112;2023-07-28T06:58:21;99189.40;;;18.60
68952;BMP180;56000;51.146;17.112;2023-07-28T07:00:54;99186.20;;;18.60
68952;BMP180;56000;51.146;17.112;2023-07-28T07:03:28;99177.00;;;18.60
68952;BMP180;56000;51.146;17.112;2023-07-28T07:06:01;99177.40;;;18.70
68952;BMP180;56000;51.146;17.112;2023-07-28T07:08:35;99168.00;;;18.90
68952;BMP180;56000;51.146;17.112;2023-07-28T07:11:08;99170.80;;;19.00
68952;BMP180;56000;51.146;17.112;2023-07-28T07:13:41;99168.60;;;19.00
68952;BMP180;56000;51.146;17.112;2023-07-28T07:16:17;99180.60;;;19.10
68952;BMP180;56000;51.146;17.112;2023-07-28T07:18:55;99187.20;;;19.18
68952;BMP180;56000;51.146;17.112;2023-07-28T07:21:29;99191.60;;;19.20
68952;BMP180;56000;51.146;17.112;2023-07-28T07:24:04;99190.80;;;19.52
68952;BMP180;56000;51.146;17.112;2023-07-28T07:26:37;99191.60;;;19.90
68952;BMP180;56000;51.146;17.112;2023-07-28T07:29:10;99197.60;;;20.02
68952;BMP180;56000;51.146;17.112;2023-07-28T07:31:44;99196.40;;;20.00
68952;BMP180;56000;51.146;17.112;2023-07-28T07:34:17;99198.40;;;20.00
68952;BMP180;56000;51.146;17.112;2023-07-28T07:36:52;99202.60;;;19.90
68952;BMP180;56000;51.146;17.112;2023-07-28T07:39:25;99197.80;;;19.80
68952;BMP180;56000;51.146;17.112;2023-07-28T07:41:58;99202.60;;;19.70
68952;BMP180;56000;51.146;17.112;2023-07-28T07:44:31;99202.80;;;19.60
68952;BMP180;56000;51.146;17.112;2023-07-28T07:47:13;99206.60;;;19.60
68952;BMP180;56000;51.146;17.112;2023-07-28T07:49:46;99212.00;;;19.60
68952;BMP180;56000;51.146;17.112;2023-07-28T07:52:19;99206.20;;;19.60
68952;BMP180;56000;51.146;17.112;2023-07-28T07:54:52;99212.60;;;19.60
68952;BMP180;56000;51.146;17.112;2023-07-28T07:57:26;99215.60;;;19.70
68952;BMP180;56000;51.146;17.112;2023-07-28T08:00:00;99216.00;;;19.70
68952;BMP180;56000;51.146;17.112;2023-07-28T08:02:43;99219.00;;;19.70
68952;BMP180;56000;51.146;17.112;2023-07-28T08:05:17;99218.00;;;19.80
68952;BMP180;56000;51.146;17.112;2023-07-28T08:07:51;99215.20;;;19.80
68952;BMP180;56000;51.146;17.112;2023-07-28T08:10:24;99220.00;;;19.80
68952;BMP180;56000;51.146;17.112;2023-07-28T08:12:58;99210.00;;;19.90
68952;BMP180;56000;51.146;17.112;2023-07-28T08:15:31;99220.40;;;19.90
68952;BMP180;56000;51.146;17.112;2023-07-28T08:18:04;99222.40;;;19.90
68952;BMP180;56000;51.146;17.112;2023-07-28T08:20:37;99222.60;;;19.90
68952;BMP180;56000;51.146;17.112;2023-07-28T08:23:10;99217.80;;;20.00
68952;BMP180;56000;51.146;17.112;2023-07-28T08:25:43;99220.20;;;20.00
68952;BMP180;56000;51.146;17.112;2023-07-28T08:28:16;99217.80;;;20.00
68952;BMP180;56000;51.146;17.112;2023-07-28T08:30:56;99224.00;;;20.00
68952;BMP180;56000;51.146;17.112;2023-07-28T08:33:30;99233.00;;;20.00
68952;BMP180;56000;51.146;17.112;2023-07-28T08:36:03;99229.60;;;20.00
68952;BMP180;56000;51.146;17.112;2023-07-28T08:38:36;99230.40;;;19.98
68952;BMP180;56000;51.146;17.112;2023-07-28T08:41:10;99231.60;;;20.18
68952;BMP180;56000;51.146;17.112;2023-07-28T08:43:43;99238.00;;;20.36
68952;BMP180;56000;51.146;17.112;2023-07-28T08:46:16;99240.80;;;20.40
68952;BMP180;56000;51.146;17.112;2023-07-28T08:48:50;99245.40;;;20.42
68952;BMP180;56000;51.146;17.112;2023-07-28T08:51:25;99245.20;;;20.40
68952;BMP180;56000;51.146;17.112;2023-07-28T08:53:58;99241.60;;;20.40
68952;BMP180;56000;51.146;17.112;2023-07-28T08:56:31;99245.20;;;20.50
68952;BMP180;56000;51.146;17.112;2023-07-28T08:59:04;99240.20;;;20.50
68952;BMP180;56000;51.146;17.112;2023-07-28T09:01:41;99240.60;;;20.76
68952;BMP180;56000;51.146;17.112;2023-07-28T09:04:15;99244.00;;;21.18
68952;BMP180;56000;51.146;17.112;2023-07-28T09:06:49;99246.00;;;21.44
68952;BMP180;56000;51.146;17.112;2023-07-28T09:09:25;99251.00;;;21.82
68952;BMP180;56000;51.146;17.112;2023-07-28T09:12:05;99250.80;;;22.00
68952;BMP180;56000;51.146;17.112;2023-07-28T09:14:39;99251.20;;;21.86
68952;BMP180;56000;51.146;17.112;2023-07-28T09:17:14;99247.60;;;21.80
68952;BMP180;56000;51.146;17.112;2023-07-28T09:19:56;99249.40;;;22.00
68952;BMP180;56000;51.146;17.112;2023-07-28T09:22:31;99246.80;;;22.14
68952;BMP180;56000;51.146;17.112;2023-07-28T09:25:13;99252.00;;;22.50
68952;BMP180;56000;51.146;17.112;2023-07-28T09:27:53;99244.60;;;22.50
68952;BMP180;56000;51.146;17.112;2023-07-28T09:30:27;99248.80;;;22.30
68952;BMP180;56000;51.146;17.112;2023-07-28T09:33:00;99250.40;;;22.38
68952;BMP180;56000;51.146;17.112;2023-07-28T09:35:33;99243.60;;;22.70
68952;BMP180;56000;51.146;17.112;2023-07-28T09:38:07;99250.20;;;22.80
68952;BMP180;56000;51.146;17.112;2023-07-28T09:40:42;99238.60;;;23.00
68952;BMP180;56000;51.146;17.112;2023-07-28T09:43:16;99238.40;;;23.00
68952;BMP180;56000;51.146;17.112;2023-07-28T09:45:49;99246.80;;;23.10
68952;BMP180;56000;51.146;17.112;2023-07-28T09:48:23;99241.80;;;23.36
68952;BMP180;56000;51.146;17.112;2023-07-28T09:50:58;99243.40;;;23.78
68952;BMP180;56000;51.146;17.112;2023-07-28T09:53:34;99237.20;;;23.90
68952;BMP180;56000;51.146;17.112;2023-07-28T09:56:09;99230.60;;;24.48
68952;BMP180;56000;51.146;17.112;2023-07-28T09:58:44;99228.80;;;24.70
68952;BMP180;56000;51.146;17.112;2023-07-28T10:01:20;99227.40;;;24.48
68952;BMP180;56000;51.146;17.112;2023-07-28T10:03:53;99230.00;;;24.56
68952;BMP180;56000;51.146;17.112;2023-07-28T10:06:27;99221.80;;;24.68
68952;BMP180;56000;51.146;17.112;2023-07-28T10:09:02;99222.00;;;24.58
68952;BMP180;56000;51.146;17.112;2023-07-28T10:11:37;99232.20;;;23.96
68952;BMP180;56000;51.146;17.112;2023-07-28T10:14:11;99231.60;;;23.40
68952;BMP180;56000;51.146;17.112;2023-07-28T10:16:58;99234.40;;;23.10
68952;BMP180;56000;51.146;17.112;2023-07-28T10:19:35;99234.20;;;23.02
68952;BMP180;56000;51.146;17.112;2023-07-28T10:22:11;99231.60;;;23.46
68952;BMP180;56000;51.146;17.112;2023-07-28T10:24:55;99232.00;;;23.60
68952;BMP180;56000;51.146;17.112;2023-07-28T10:27:44;99223.60;;;23.94
68952;BMP180;56000;51.146;17.112;2023-07-28T10:30:17;99227.40;;;25.08
68952;BMP180;56000;51.146;17.112;2023-07-28T10:32:52;99233.20;;;26.20
68952;BMP180;56000;51.146;17.112;2023-07-28T10:35:29;99228.20;;;27.06
68952;BMP180;56000;51.146;17.112;2023-07-28T10:38:32;99233.00;;;27.74
68952;BMP180;56000;51.146;17.112;2023-07-28T10:41:17;99230.60;;;28.50
68952;BMP180;56000;51.146;17.112;2023-07-28T10:43:50;99227.60;;;27.98
68952;BMP180;56000;51.146;17.112;2023-07-28T10:46:24;99231.00;;;27.44
68952;BMP180;56000;51.146;17.112;2023-07-28T10:49:05;99229.40;;;28.08
68952;BMP180;56000;51.146;17.112;2023-07-28T10:51:40;99224.20;;;28.30
68952;BMP180;56000;51.146;17.112;2023-07-28T10:54:13;99223.60;;;29.22
68952;BMP180;56000;51.146;17.112;2023-07-28T10:56:50;99227.40;;;29.80
68952;BMP180;56000;51.146;17.112;2023-07-28T10:59:23;99222.80;;;30.48
68952;BMP180;56000;51.146;17.112;2023-07-28T11:01:57;99216.60;;;31.38
68952;BMP180;56000;51.146;17.112;2023-07-28T11:04:30;99220.60;;;31.90
68952;BMP180;56000;51.146;17.112;2023-07-28T11:07:06;99218.80;;;32.42
68952;BMP180;56000;51.146;17.112;2023-07-28T11:09:40;99228.60;;;32.68
68952;BMP180;56000;51.146;17.112;2023-07-28T11:12:13;99220.80;;;32.22
68952;BMP180;56000;51.146;17.112;2023-07-28T11:14:47;99225.00;;;31.24
68952;BMP180;56000;51.146;17.112;2023-07-28T11:17:20;99213.00;;;30.64
68952;BMP180;56000;51.146;17.112;2023-07-28T11:19:53;99219.20;;;29.80
68952;BMP180;56000;51.146;17.112;2023-07-28T11:22:29;99218.60;;;30.18
68952;BMP180;56000;51.146;17.112;2023-07-28T11:25:02;99206.80;;;30.86
68952;BMP180;56000;51.146;17.112;2023-07-28T11:27:41;99210.40;;;32.24
68952;BMP180;56000;51.146;17.112;2023-07-28T11:30:17;99209.80;;;32.36
68952;BMP180;56000;51.146;17.112;2023-07-28T11:32:52;99201.40;;;32.76
68952;BMP180;56000;51.146;17.112;2023-07-28T11:35:26;99200.60;;;32.64
68952;BMP180;56000;51.146;17.112;2023-07-28T11:37:59;99210.20;;;32.76
68952;BMP180;56000;51.146;17.112;2023-07-28T11:40:33;99211.20;;;31.62
68952;BMP180;56000;51.146;17.112;2023-07-28T11:43:06;99211.20;;;30.26
68952;BMP180;56000;51.146;17.112;2023-07-28T11:45:40;99195.40;;;29.44
68952;BMP180;56000;51.146;17.112;2023-07-28T11:48:15;99203.80;;;30.16
68952;BMP180;56000;51.146;17.112;2023-07-28T11:50:49;99201.40;;;30.94
68952;BMP180;56000;51.146;17.112;2023-07-28T11:53:26;99198.40;;;32.52
68952;BMP180;56000;51.146;17.112;2023-07-28T11:55:59;99203.40;;;32.42
68952;BMP180;56000;51.146;17.112;2023-07-28T11:58:34;99204.00;;;31.24
68952;BMP180;56000;51.146;17.112;2023-07-28T12:01:11;99205.00;;;30.16
68952;BMP180;56000;51.146;17.112;2023-07-28T12:03:45;99194.00;;;30.24
68952;BMP180;56000;51.146;17.112;2023-07-28T12:06:18;99203.00;;;32.12
68952;BMP180;56000;51.146;17.112;2023-07-28T12:09:10;99214.20;;;32.36
68952;BMP180;56000;51.146;17.112;2023-07-28T12:11:47;99210.60;;;31.88
68952;BMP180;56000;51.146;17.112;2023-07-28T12:14:33;99199.40;;;33.04
68952;BMP180;56000;51.146;17.112;2023-07-28T12:17:16;99209.80;;;33.96
68952;BMP180;56000;51.146;17.112;2023-07-28T12:20:04;99213.20;;;33.14
68952;BMP180;56000;51.146;17.112;2023-07-28T12:22:41;99205.00;;;31.84
68952;BMP180;56000;51.146;17.112;2023-07-28T12:25:14;99211.20;;;30.64
68952;BMP180;56000;51.146;17.112;2023-07-28T12:27:47;99221.20;;;29.72
68952;BMP180;56000;51.146;17.112;2023-07-28T12:30:20;99223.60;;;28.98
68952;BMP180;56000;51.146;17.112;2023-07-28T12:32:53;99222.20;;;28.38
68952;BMP180;56000;51.146;17.112;2023-07-28T12:35:30;99224.40;;;27.94
68952;BMP180;56000;51.146;17.112;2023-07-28T12:38:09;99224.20;;;27.50
68952;BMP180;56000;51.146;17.112;2023-07-28T12:40:45;99227.00;;;27.20
68952;BMP180;56000;51.146;17.112;2023-07-28T12:43:20;99230.80;;;27.10
68952;BMP180;56000;51.146;17.112;2023-07-28T12:45:57;99228.00;;;27.84
68952;BMP180;56000;51.146;17.112;2023-07-28T12:48:33;99230.60;;;28.28
68952;BMP180;56000;51.146;17.112;2023-07-28T12:51:18;99222.00;;;29.60
68952;BMP180;56000;51.146;17.112;2023-07-28T12:53:55;99219.60;;;32.18
68952;BMP180;56000;51.146;17.112;2023-07-28T12:56:28;99220.20;;;34.32
68952;BMP180;56000;51.146;17.112;2023-07-28T12:59:04;99215.00;;;35.66
68952;BMP180;56000;51.146;17.112;2023-07-28T13:01:40;99217.00;;;36.18
68952;BMP180;56000;51.146;17.112;2023-07-28T13:04:13;99220.20;;;36.96
68952;BMP180;56000;51.146;17.112;2023-07-28T13:06:46;99223.60;;;37.32
68952;BMP180;56000;51.146;17.112;2023-07-28T13:09:20;99233.00;;;37.24
68952;BMP180;56000;51.146;17.112;2023-07-28T13:11:56;99230.60;;;35.92
68952;BMP180;56000;51.146;17.112;2023-07-28T13:14:33;99233.40;;;33.98
68952;BMP180;56000;51.146;17.112;2023-07-28T13:17:06;99230.40;;;32.18
68952;BMP180;56000;51.146;17.112;2023-07-28T13:19:40;99240.00;;;31.10
68952;BMP180;56000;51.146;17.112;2023-07-28T13:22:13;99233.80;;;30.70
68952;BMP180;56000;51.146;17.112;2023-07-28T13:24:46;99237.40;;;30.68
68952;BMP180;56000;51.146;17.112;2023-07-28T13:27:19;99233.00;;;31.22
68952;BMP180;56000;51.146;17.112;2023-07-28T13:29:52;99236.00;;;32.68
68952;BMP180;56000;51.146;17.112;2023-07-28T13:32:27;99240.00;;;34.16
68952;BMP180;56000;51.146;17.112;2023-07-28T13:35:00;99237.80;;;35.00
68952;BMP180;56000;51.146;17.112;2023-07-28T13:37:33;99241.00;;;36.14
68952;BMP180;56000;51.146;17.112;2023-07-28T13:40:08;99245.00;;;37.16
68952;BMP180;56000;51.146;17.112;2023-07-28T13:42:43;99250.20;;;37.90
68952;BMP180;56000;51.146;17.112;2023-07-28T13:45:17;99249.60;;;38.32
68952;BMP180;56000;51.146;17.112;2023-07-28T13:47:50;99249.40;;;38.74
68952;BMP180;56000;51.146;17.112;2023-07-28T13:50:23;99262.00;;;39.10
68952;BMP180;56000;51.146;17.112;2023-07-28T13:53:09;99263.00;;;39.30
68952;BMP180;56000;51.146;17.112;2023-07-28T13:55:45;99273.80;;;38.44
68952;BMP180;56000;51.146;17.112;2023-07-28T13:58:28;99275.00;;;36.26
68952;BMP180;56000;51.146;17.112;2023-07-28T14:01:01;99274.20;;;34.90
68952;BMP180;56000;51.146;17.112;2023-07-28T14:03:34;99272.40;;;34.90
68952;BMP180;56000;51.146;17.112;2023-07-28T14:06:07;99270.20;;;35.72
68952;BMP180;56000;51.146;17.112;2023-07-28T14:08:40;99270.60;;;36.04
68952;BMP180;56000;51.146;17.112;2023-07-28T14:11:14;99268.20;;;36.36
68952;BMP180;56000;51.146;17.112;2023-07-28T14:13:47;99265.20;;;36.96
68952;BMP180;56000;51.146;17.112;2023-07-28T14:16:20;99275.40;;;37.68
68952;BMP180;56000;51.146;17.112;2023-07-28T14:18:53;99270.00;;;37.76
68952;BMP180;56000;51.146;17.112;2023-07-28T14:21:27;99271.80;;;37.42
68952;BMP180;56000;51.146;17.112;2023-07-28T14:24:00;99273.20;;;38.04
68952;BMP180;56000;51.146;17.112;2023-07-28T14:26:34;99279.20;;;38.34
68952;BMP180;56000;51.146;17.112;2023-07-28T14:29:07;99274.60;;;38.40
68952;BMP180;56000;51.146;17.112;2023-07-28T14:31:40;99273.40;;;38.80
68952;BMP180;56000;51.146;17.112;2023-07-28T14:34:13;99269.60;;;39.06
68952;BMP180;56000;51.146;17.112;2023-07-28T14:36:46;99274.60;;;39.44
68952;BMP180;56000;51.146;17.112;2023-07-28T14:39:19;99281.00;;;39.90